createdAt,value
2022-09-17T00:01:21.953Z,8.60
2022-09-17T00:03:53.895Z,8.60
2022-09-17T00:06:21.968Z,8.60
2022-09-17T00:08:49.849Z,8.70
2022-09-17T00:11:29.299Z,8.60
2022-09-17T00:13:58.367Z,8.60
2022-09-17T00:16:29.409Z,8.60
2022-09-17T00:18:56.694Z,8.60
2022-09-17T00:21:24.679Z,8.60
2022-09-17T00:24:11.890Z,8.50
2022-09-17T00:26:39.007Z,8.50
2022-09-17T00:29:06.354Z,8.50
2022-09-17T00:31:34.313Z,8.40
2022-09-17T00:34:03.212Z,8.40
2022-09-17T00:36:30.741Z,8.40
2022-09-17T00:38:59.617Z,8.40
2022-09-17T00:41:30.181Z,8.40
2022-09-17T00:43:59.655Z,8.30
2022-09-17T00:46:35.023Z,8.30
2022-09-17T00:49:24.430Z,8.30
2022-09-17T00:52:00.963Z,8.30
2022-09-17T00:54:28.407Z,8.30
2022-09-17T00:56:56.973Z,8.30
2022-09-17T00:59:24.528Z,8.30
2022-09-17T01:01:52.905Z,8.30
2022-09-17T01:04:22.799Z,8.30
2022-09-17T01:07:07.954Z,8.20
2022-09-17T01:10:01.606Z,8.20
2022-09-17T01:12:47.777Z,8.20
2022-09-17T01:15:23.523Z,8.20
2022-09-17T01:18:05.142Z,8.30
2022-09-17T01:20:59.540Z,8.20
2022-09-17T01:23:55.135Z,8.30
2022-09-17T01:26:31.688Z,8.30
2022-09-17T01:29:40.200Z,8.30
2022-09-17T01:32:18.565Z,8.30
2022-09-17T01:35:03.420Z,8.20
2022-09-17T01:37:33.455Z,8.20
2022-09-17T01:40:23.502Z,8.20
2022-09-17T01:43:08.494Z,8.20
2022-09-17T01:45:48.670Z,8.20
2022-09-17T01:48:23.856Z,8.20
2022-09-17T01:51:04.919Z,8.10
2022-09-17T01:53:51.460Z,8.10
2022-09-17T01:56:26.064Z,8.10
2022-09-17T01:59:03.003Z,8.00
2022-09-17T02:01:32.781Z,8.00
2022-09-17T02:04:09.978Z,8.00
2022-09-17T02:06:42.714Z,7.90
2022-09-17T02:09:24.585Z,7.90
2022-09-17T02:11:56.541Z,7.90
2022-09-17T02:14:29.609Z,7.80
2022-09-17T02:17:07.633Z,7.80
2022-09-17T02:19:39.148Z,7.80
2022-09-17T02:22:25.753Z,7.80
2022-09-17T02:25:17.140Z,7.70
2022-09-17T02:27:56.339Z,7.70
2022-09-17T02:30:23.838Z,7.70
2022-09-17T02:32:51.511Z,7.70
2022-09-17T02:35:18.450Z,7.60
2022-09-17T02:37:46.002Z,7.60
2022-09-17T02:40:18.088Z,7.60
2022-09-17T02:42:59.431Z,7.60
2022-09-17T02:45:32.430Z,7.60
2022-09-17T02:48:08.441Z,7.60
2022-09-17T02:51:05.706Z,7.60
2022-09-17T02:54:05.685Z,7.60
2022-09-17T02:56:57.580Z,7.60
2022-09-17T02:59:41.877Z,7.60
2022-09-17T03:02:43.402Z,7.60
2022-09-17T03:05:11.922Z,7.60
2022-09-17T03:07:39.414Z,7.50
2022-09-17T03:10:07.144Z,7.50
2022-09-17T03:12:34.786Z,7.50
2022-09-17T03:15:01.894Z,7.50
2022-09-17T03:17:29.280Z,7.50
2022-09-17T03:19:56.308Z,7.50
2022-09-17T03:22:23.372Z,7.50
2022-09-17T03:24:50.363Z,7.50
2022-09-17T03:27:17.260Z,7.50
2022-09-17T03:29:44.444Z,7.50
2022-09-17T03:32:11.403Z,7.50
2022-09-17T03:34:38.318Z,7.50
2022-09-17T03:37:05.508Z,6.50
2022-09-17T03:39:32.433Z,7.60
2022-09-17T03:41:59.405Z,7.70
2022-09-17T03:44:26.719Z,7.90
2022-09-17T03:46:53.629Z,8.00
2022-09-17T03:49:20.530Z,8.10
2022-09-17T03:51:47.929Z,8.20
2022-09-17T03:54:14.817Z,8.30
2022-09-17T03:56:41.810Z,8.40
2022-09-17T03:59:09.339Z,8.50
2022-09-17T04:01:36.485Z,8.60
2022-09-17T04:04:04.375Z,8.60
2022-09-17T04:06:31.780Z,8.60
2022-09-17T04:09:00.909Z,8.60
2022-09-17T04:11:27.828Z,8.60
2022-09-17T04:13:55.179Z,8.60
2022-09-17T04:16:22.571Z,8.70
2022-09-17T04:18:49.550Z,8.70
2022-09-17T04:21:16.714Z,8.80
2022-09-17T04:23:43.601Z,8.90
2022-09-17T04:26:10.743Z,8.90
2022-09-17T04:28:38.307Z,9.00
2022-09-17T04:31:05.361Z,9.10
2022-09-17T04:33:32.426Z,9.10
2022-09-17T04:35:59.524Z,9.10
2022-09-17T04:38:26.483Z,9.20
2022-09-17T04:40:54.560Z,9.30
2022-09-17T04:43:22.092Z,9.40
2022-09-17T04:45:50.680Z,9.40
2022-09-17T04:48:18.115Z,9.50
2022-09-17T04:50:45.235Z,9.50
2022-09-17T04:53:12.604Z,9.50
2022-09-17T04:55:39.703Z,9.60
2022-09-17T04:58:06.914Z,9.60
2022-09-17T05:00:35.390Z,9.60
2022-09-17T05:03:02.398Z,9.70
2022-09-17T05:05:29.989Z,9.70
2022-09-17T05:07:56.890Z,9.70
2022-09-17T05:10:24.354Z,9.80
2022-09-17T05:12:53.723Z,9.80
2022-09-17T05:15:23.629Z,9.90
2022-09-17T05:17:50.675Z,9.90
2022-09-17T05:20:18.335Z,10.00
2022-09-17T05:22:49.860Z,10.00
2022-09-17T05:25:18.262Z,10.00
2022-09-17T05:27:46.545Z,10.10
2022-09-17T05:30:13.577Z,10.00
2022-09-17T05:32:40.908Z,10.10
2022-09-17T05:35:09.410Z,10.10
2022-09-17T05:37:36.931Z,10.10
2022-09-17T05:40:06.731Z,10.10
2022-09-17T05:42:34.194Z,10.10
2022-09-17T05:45:01.282Z,10.10
2022-09-17T05:47:28.245Z,10.00
2022-09-17T05:49:55.975Z,10.00
2022-09-17T05:52:22.946Z,10.00
2022-09-17T05:54:49.833Z,10.00
2022-09-17T05:57:17.041Z,10.00
2022-09-17T05:59:43.922Z,10.00
2022-09-17T06:02:13.817Z,10.00
2022-09-17T06:04:41.238Z,9.90
2022-09-17T06:07:09.363Z,9.80
2022-09-17T06:09:41.132Z,9.80
2022-09-17T06:12:09.201Z,9.80
2022-09-17T06:14:36.077Z,9.80
2022-09-17T06:17:03.180Z,9.80
2022-09-17T06:19:30.589Z,9.90
2022-09-17T06:21:57.487Z,9.90
2022-09-17T06:24:24.460Z,10.00
2022-09-17T06:26:52.470Z,10.00
2022-09-17T06:29:19.997Z,10.00
2022-09-17T06:31:48.894Z,10.10
2022-09-17T06:34:17.674Z,10.10
2022-09-17T06:36:44.654Z,10.20
2022-09-17T06:39:11.949Z,10.20
2022-09-17T06:41:39.258Z,10.30
2022-09-17T06:44:06.259Z,10.40
2022-09-17T06:46:33.251Z,10.50
2022-09-17T06:49:00.613Z,10.70
2022-09-17T06:51:27.557Z,11.00
2022-09-17T06:53:54.537Z,11.20
2022-09-17T06:56:21.712Z,11.20
2022-09-17T06:58:48.661Z,11.20
2022-09-17T07:01:15.689Z,11.20
2022-09-17T07:03:43.575Z,11.10
2022-09-17T07:06:11.335Z,11.00
2022-09-17T07:08:39.497Z,11.00
2022-09-17T07:11:08.085Z,11.10
2022-09-17T07:13:35.135Z,11.20
2022-09-17T07:16:03.613Z,11.60
2022-09-17T07:18:31.665Z,12.40
2022-09-17T07:21:04.125Z,13.00
2022-09-17T07:23:33.777Z,13.60
2022-09-17T07:26:04.908Z,14.00
2022-09-17T07:28:32.513Z,14.00
2022-09-17T07:31:02.960Z,13.60
2022-09-17T07:33:30.074Z,13.40
2022-09-17T07:35:59.802Z,13.00
2022-09-17T07:38:28.245Z,12.70
2022-09-17T07:40:59.721Z,12.60
2022-09-17T07:43:28.755Z,12.60
2022-09-17T07:45:57.948Z,12.60
2022-09-17T07:48:25.735Z,12.70
2022-09-17T07:50:53.098Z,12.80
2022-09-17T07:53:20.093Z,12.80
2022-09-17T07:56:00.642Z,12.90
2022-09-17T07:58:33.887Z,13.10
2022-09-17T08:01:07.106Z,13.20
2022-09-17T08:03:35.479Z,13.20
2022-09-17T08:06:13.206Z,13.10
2022-09-17T08:08:41.466Z,13.10
2022-09-17T08:11:10.726Z,13.10
2022-09-17T08:13:38.051Z,13.20
2022-09-17T08:16:08.462Z,13.20
2022-09-17T08:18:35.799Z,13.30
2022-09-17T08:21:04.988Z,13.60
2022-09-17T08:23:34.602Z,13.60
2022-09-17T08:26:01.971Z,13.60
2022-09-17T08:28:30.763Z,13.40
2022-09-17T08:31:03.502Z,13.20
2022-09-17T08:33:37.759Z,13.10
2022-09-17T08:36:06.225Z,13.10
2022-09-17T08:38:38.024Z,13.20
2022-09-17T08:41:14.737Z,13.30
2022-09-17T08:44:04.576Z,13.60
2022-09-17T08:46:38.208Z,14.00
2022-09-17T08:49:15.438Z,14.50
2022-09-17T08:51:53.238Z,15.10
2022-09-17T08:54:39.136Z,15.50
2022-09-17T08:57:19.185Z,15.20
2022-09-17T09:00:20.445Z,14.90
2022-09-17T09:03:25.636Z,14.50
2022-09-17T09:05:53.166Z,14.30
2022-09-17T09:08:38.949Z,14.10
2022-09-17T09:11:13.719Z,13.90
2022-09-17T09:13:43.583Z,13.80
2022-09-17T09:16:16.389Z,13.80
2022-09-17T09:18:43.539Z,14.10
2022-09-17T09:21:29.417Z,13.90
2022-09-17T09:24:24.182Z,14.20
2022-09-17T09:27:23.928Z,14.40
2022-09-17T09:30:04.069Z,14.60
2022-09-17T09:32:51.659Z,14.90
2022-09-17T09:35:31.492Z,15.10
2022-09-17T09:38:09.952Z,15.40
2022-09-17T09:41:10.236Z,15.70
2022-09-17T09:44:12.416Z,16.00
2022-09-17T09:47:13.587Z,16.10
2022-09-17T09:50:05.511Z,15.80
2022-09-17T09:52:51.855Z,15.50
2022-09-17T09:55:58.686Z,15.10
2022-09-17T09:58:37.013Z,14.70
2022-09-17T10:01:12.510Z,14.30
2022-09-17T10:03:42.161Z,14.10
2022-09-17T10:06:10.831Z,13.90
2022-09-17T10:08:40.756Z,13.90
2022-09-17T10:11:13.808Z,13.80
2022-09-17T10:13:41.125Z,13.70
2022-09-17T10:16:20.662Z,13.60
2022-09-17T10:18:49.477Z,13.50
2022-09-17T10:21:33.211Z,13.50
2022-09-17T10:24:01.233Z,13.40
2022-09-17T10:26:35.562Z,13.50
2022-09-17T10:29:03.420Z,13.50
2022-09-17T10:31:50.188Z,13.60
2022-09-17T10:34:21.854Z,13.50
2022-09-17T10:36:49.376Z,13.40
2022-09-17T10:39:28.303Z,13.30
2022-09-17T10:41:59.765Z,13.30
2022-09-17T10:44:33.266Z,13.20
2022-09-17T10:47:15.988Z,13.10
2022-09-17T10:50:21.207Z,13.20
2022-09-17T10:52:51.739Z,13.10
2022-09-17T10:55:33.085Z,13.10
2022-09-17T10:58:20.526Z,13.00
2022-09-17T11:01:26.081Z,13.00
2022-09-17T11:04:23.162Z,13.00
2022-09-17T11:07:04.404Z,12.90
2022-09-17T11:09:37.351Z,12.90
2022-09-17T11:12:25.294Z,13.00
2022-09-17T11:15:14.018Z,13.00
2022-09-17T11:17:53.099Z,13.10
2022-09-17T11:20:33.244Z,13.20
2022-09-17T11:23:41.738Z,13.70
2022-09-17T11:26:30.112Z,14.20
2022-09-17T11:29:05.023Z,14.70
2022-09-17T11:31:49.719Z,15.00
2022-09-17T11:34:42.949Z,15.30
2022-09-17T11:37:13.218Z,15.60
2022-09-17T11:39:55.262Z,15.80
2022-09-17T11:42:28.248Z,15.90
2022-09-17T11:45:02.443Z,15.80
2022-09-17T11:47:35.955Z,15.70
2022-09-17T11:50:22.199Z,15.50
2022-09-17T11:53:04.690Z,15.30
2022-09-17T11:55:39.739Z,15.10
2022-09-17T11:58:36.299Z,14.90
2022-09-17T12:01:11.018Z,14.80
2022-09-17T12:03:50.995Z,14.80
2022-09-17T12:06:43.766Z,14.80
2022-09-17T12:09:17.450Z,14.80
2022-09-17T12:12:21.741Z,14.80
2022-09-17T12:15:04.005Z,15.00
2022-09-17T12:18:27.763Z,15.40
2022-09-17T12:20:54.541Z,15.60
2022-09-17T12:23:38.773Z,15.70
2022-09-17T12:26:20.116Z,16.70
2022-09-17T12:28:57.953Z,15.90
2022-09-17T12:31:49.856Z,16.30
2022-09-17T12:34:16.733Z,16.60
2022-09-17T12:37:34.490Z,16.80
2022-09-17T12:40:10.465Z,17.00
2022-09-17T12:43:06.604Z,16.80
2022-09-17T12:50:47.520Z,15.90
2022-09-17T12:56:04.156Z,15.50
2022-09-17T12:58:47.373Z,15.60
2022-09-17T14:01:05.899Z,17.60
2022-09-17T14:06:11.548Z,17.30
2022-09-17T14:08:49.736Z,17.10
2022-09-17T14:11:22.524Z,17.00
2022-09-17T14:13:56.092Z,17.00
2022-09-17T14:16:25.497Z,16.90
2022-09-17T14:19:22.269Z,17.00
2022-09-17T14:21:59.582Z,17.10
2022-09-17T14:24:36.177Z,17.10
2022-09-17T14:27:09.311Z,17.00
2022-09-17T14:30:01.622Z,16.80
2022-09-17T14:32:35.906Z,16.70
2022-09-17T14:35:17.864Z,16.60
2022-09-17T14:37:52.153Z,16.60
2022-09-17T14:40:20.902Z,16.60
2022-09-17T14:42:52.165Z,16.80
2022-09-17T14:45:29.577Z,16.80
2022-09-17T14:48:18.664Z,16.80
2022-09-17T14:50:46.423Z,16.60
2022-09-17T14:53:18.202Z,16.50
2022-09-17T14:55:50.646Z,16.30
2022-09-17T14:58:33.185Z,16.10
2022-09-17T15:01:00.665Z,15.90
2022-09-17T15:03:27.745Z,15.80
2022-09-17T15:05:54.917Z,15.60
2022-09-17T15:08:24.445Z,15.50
2022-09-17T15:11:10.781Z,15.50
2022-09-17T15:13:44.210Z,15.30
2022-09-17T15:16:19.732Z,15.20
2022-09-17T15:18:54.316Z,15.00
2022-09-17T15:21:41.764Z,14.80
2022-09-17T15:24:33.387Z,14.70
2022-09-17T15:27:09.715Z,14.60
2022-09-17T15:29:42.702Z,14.50
2022-09-17T15:32:12.867Z,14.30
2022-09-17T15:34:41.044Z,14.20
2022-09-17T15:37:25.195Z,14.10
2022-09-17T15:39:54.706Z,13.90
2022-09-17T15:42:30.875Z,13.60
2022-09-17T15:45:28.905Z,13.20
2022-09-17T15:47:57.471Z,12.70
2022-09-17T15:50:25.870Z,12.50
2022-09-17T15:53:12.169Z,12.40
2022-09-17T15:55:43.961Z,12.50
2022-09-17T15:58:28.871Z,12.60
2022-09-17T16:01:15.036Z,12.70
2022-09-17T16:03:43.433Z,12.80
2022-09-17T16:06:19.821Z,12.90
2022-09-17T16:08:50.892Z,13.00
2022-09-17T16:11:20.663Z,12.90
2022-09-17T16:13:52.263Z,12.80
2022-09-17T16:16:22.507Z,12.70
2022-09-17T16:18:50.540Z,12.60
2022-09-17T16:21:19.419Z,12.60
2022-09-17T16:23:46.689Z,12.50
2022-09-17T16:26:23.410Z,12.40
2022-09-17T16:28:54.190Z,12.30
2022-09-17T16:31:21.359Z,12.40
2022-09-17T16:33:48.289Z,10.60
2022-09-17T16:36:18.932Z,12.20
2022-09-17T16:38:45.826Z,11.60
2022-09-17T16:41:12.875Z,11.30
2022-09-17T16:43:40.420Z,11.10
2022-09-17T16:46:10.472Z,11.10
2022-09-17T16:48:38.171Z,11.10
2022-09-17T16:51:10.137Z,11.00
2022-09-17T16:53:37.362Z,10.90
2022-09-17T16:56:11.265Z,10.90
2022-09-17T16:58:38.851Z,10.90
2022-09-17T17:01:14.087Z,10.90
2022-09-17T17:03:42.669Z,10.90
2022-09-17T17:06:17.136Z,10.90
2022-09-17T17:08:44.536Z,10.90
2022-09-17T17:11:11.454Z,10.90
2022-09-17T17:13:38.511Z,12.60
2022-09-17T17:16:07.513Z,10.90
2022-09-17T17:18:34.941Z,10.90
2022-09-17T17:21:12.581Z,10.70
2022-09-17T17:23:39.986Z,10.80
2022-09-17T17:26:06.867Z,10.70
2022-09-17T17:28:35.634Z,10.80
2022-09-17T17:31:05.147Z,10.80
2022-09-17T17:33:32.650Z,10.80
2022-09-17T17:36:05.340Z,10.80
2022-09-17T17:38:35.086Z,10.80
2022-09-17T17:41:13.406Z,10.90
2022-09-17T17:43:41.431Z,10.90
2022-09-17T17:46:10.475Z,10.90
2022-09-17T17:48:37.530Z,10.90
2022-09-17T17:51:07.004Z,10.90
2022-09-17T17:53:34.859Z,10.90
2022-09-17T17:56:05.794Z,10.90
2022-09-17T17:58:33.637Z,10.90
2022-09-17T18:01:01.090Z,10.90
2022-09-17T18:03:28.014Z,10.90
2022-09-17T18:05:58.945Z,10.80
2022-09-17T18:08:26.322Z,10.80
2022-09-17T18:11:00.204Z,10.70
2022-09-17T18:13:27.848Z,10.70
2022-09-17T18:15:57.147Z,10.60
2022-09-17T18:18:25.311Z,10.60
2022-09-17T18:20:55.856Z,10.50
2022-09-17T18:23:22.898Z,10.50
2022-09-17T18:25:57.060Z,10.50
2022-09-17T18:28:24.674Z,10.50
2022-09-17T18:30:52.017Z,10.50
2022-09-17T18:33:26.969Z,10.50
2022-09-17T18:35:57.531Z,10.60
2022-09-17T18:38:24.796Z,10.60
2022-09-17T18:40:52.092Z,10.70
2022-09-17T18:43:19.834Z,10.70
2022-09-17T18:45:59.783Z,10.70
2022-09-17T18:48:27.423Z,10.70
2022-09-17T18:51:05.613Z,10.80
2022-09-17T18:53:37.849Z,10.80
2022-09-17T18:56:11.178Z,10.80
2022-09-17T18:58:38.265Z,10.90
2022-09-17T19:01:09.475Z,10.90
2022-09-17T19:03:36.591Z,10.90
2022-09-17T19:06:05.649Z,10.90
2022-09-17T19:08:32.803Z,10.90
2022-09-17T19:10:59.828Z,10.90
2022-09-17T19:13:32.985Z,10.90
2022-09-17T19:16:00.350Z,10.90
2022-09-17T19:18:27.970Z,10.90
2022-09-17T19:21:05.438Z,10.90
2022-09-17T19:23:33.618Z,11.00
2022-09-17T19:26:08.054Z,11.00
2022-09-17T19:28:35.641Z,10.90
2022-09-17T19:31:11.232Z,10.90
2022-09-17T19:33:39.364Z,10.90
2022-09-17T19:36:08.634Z,10.90
2022-09-17T19:38:35.778Z,10.90
2022-09-17T19:41:07.022Z,10.90
2022-09-17T19:43:37.177Z,10.90
2022-09-17T19:46:15.961Z,10.90
2022-09-17T19:48:47.077Z,10.80
2022-09-17T19:51:15.859Z,10.80
2022-09-17T19:53:43.540Z,10.90
2022-09-17T19:56:15.814Z,10.90
2022-09-17T19:58:43.492Z,10.90
2022-09-17T20:01:11.415Z,10.80
2022-09-17T20:03:39.983Z,10.80
2022-09-17T20:06:13.660Z,10.70
2022-09-17T20:08:47.178Z,10.70
2022-09-17T20:11:15.647Z,10.80
2022-09-17T20:13:42.996Z,10.70
2022-09-17T20:16:12.822Z,10.70
2022-09-17T20:18:41.146Z,10.50
2022-09-17T20:21:15.060Z,10.60
2022-09-17T20:23:43.025Z,10.40
2022-09-17T20:26:10.913Z,10.50
2022-09-17T20:28:38.151Z,10.40
2022-09-17T20:31:15.940Z,10.40
2022-09-17T20:33:44.632Z,10.50
2022-09-17T20:36:14.620Z,10.50
2022-09-17T20:39:10.611Z,10.50
2022-09-17T20:41:31.525Z,10.60
2022-09-17T20:43:58.806Z,10.70
2022-09-17T20:46:29.175Z,10.70
2022-09-17T20:48:58.335Z,10.70
2022-09-17T20:51:28.068Z,10.70
2022-09-17T20:53:57.370Z,10.70
2022-09-17T20:56:27.809Z,10.70
2022-09-17T20:59:03.352Z,10.70
2022-09-17T21:01:32.839Z,10.70
2022-09-17T21:04:01.549Z,10.70
2022-09-17T21:06:34.947Z,10.70
2022-09-17T21:09:02.873Z,10.70
2022-09-17T21:11:31.399Z,10.70
2022-09-17T21:14:00.218Z,10.70
2022-09-17T21:16:28.618Z,10.60
2022-09-17T21:18:58.090Z,10.60
2022-09-17T21:21:26.073Z,10.60
2022-09-17T21:23:53.867Z,10.60
2022-09-17T21:26:23.116Z,10.60
2022-09-17T21:28:51.807Z,10.60
2022-09-17T21:31:23.117Z,10.60
2022-09-17T21:33:53.924Z,10.50
2022-09-17T21:36:23.224Z,10.60
2022-09-17T21:38:51.968Z,10.60
2022-09-17T21:41:19.782Z,10.60
2022-09-17T21:46:26.172Z,10.60
2022-09-17T21:48:56.787Z,10.60
2022-09-17T21:51:37.687Z,10.60
2022-09-17T21:54:07.744Z,10.70
2022-09-17T21:56:35.169Z,10.70
2022-09-17T21:59:04.470Z,10.70
2022-09-17T22:01:39.597Z,10.70
2022-09-17T22:04:12.561Z,10.70
2022-09-17T22:06:41.373Z,10.70
2022-09-17T22:09:17.651Z,10.70
2022-09-17T22:11:45.321Z,10.70
2022-09-17T22:14:19.162Z,10.70
2022-09-17T22:16:54.906Z,10.70
2022-09-17T22:19:23.417Z,10.70
2022-09-17T22:21:53.022Z,10.70
2022-09-17T22:24:21.800Z,10.60
2022-09-17T22:26:54.339Z,10.70
2022-09-17T22:29:25.368Z,10.70
2022-09-17T22:31:52.298Z,10.70
2022-09-17T22:34:21.548Z,10.60
2022-09-17T22:44:18.030Z,10.50
2022-09-17T22:51:42.479Z,10.60
2022-09-17T22:56:41.024Z,10.70
2022-09-17T22:59:08.675Z,10.50
2022-09-17T23:01:36.550Z,10.60
2022-09-17T23:04:05.271Z,10.50
2022-09-17T23:06:38.420Z,10.50
2022-09-17T23:09:06.222Z,10.40
2022-09-17T23:14:08.850Z,10.50
2022-09-17T23:16:42.433Z,10.50
2022-09-17T23:19:10.346Z,10.50
2022-09-17T23:21:38.491Z,10.40
2022-09-17T23:26:33.371Z,10.40
2022-09-17T23:29:05.038Z,10.40
2022-09-17T23:31:35.292Z,10.50
2022-09-17T23:34:03.941Z,10.40
2022-09-17T23:36:34.968Z,10.40
2022-09-17T23:39:02.889Z,10.30
2022-09-17T23:41:32.978Z,10.30
2022-09-17T23:44:02.344Z,10.30
2022-09-17T23:46:31.411Z,10.30
2022-09-17T23:48:59.126Z,10.30
2022-09-17T23:51:28.477Z,10.20
2022-09-17T23:56:25.916Z,10.10
2022-09-17T23:58:54.413Z,10.10
